createdAt,value
2023-01-21T00:01:48.143Z,100.00
2023-01-21T00:04:19.486Z,100.00
2023-01-21T00:06:50.821Z,100.00
2023-01-21T00:09:21.145Z,100.00
2023-01-21T00:11:52.267Z,100.00
2023-01-21T00:14:23.240Z,100.00
2023-01-21T00:16:53.671Z,100.00
2023-01-21T00:19:24.547Z,100.00
2023-01-21T00:21:55.230Z,100.00
2023-01-21T00:24:26.392Z,100.00
2023-01-21T00:26:58.212Z,100.00
2023-01-21T00:29:29.326Z,100.00
2023-01-21T00:32:00.594Z,100.00
2023-01-21T00:34:32.090Z,100.00
2023-01-21T00:37:02.967Z,100.00
2023-01-21T00:39:33.968Z,100.00
2023-01-21T00:42:05.959Z,100.00
2023-01-21T00:44:37.151Z,100.00
2023-01-21T00:47:09.021Z,100.00
2023-01-21T00:49:40.066Z,100.00
2023-01-21T00:52:10.901Z,100.00
2023-01-21T00:54:43.047Z,97.26
2023-01-21T00:57:15.302Z,91.38
2023-01-21T00:59:46.439Z,91.73
2023-01-21T01:02:17.581Z,87.33
2023-01-21T01:04:48.125Z,89.65
2023-01-21T01:07:19.410Z,87.16
2023-01-21T01:09:50.553Z,84.80
2023-01-21T01:12:20.922Z,85.34
2023-01-21T01:14:51.773Z,88.40
2023-01-21T01:17:23.206Z,86.05
2023-01-21T01:19:54.336Z,88.28
2023-01-21T01:22:25.648Z,83.74
2023-01-21T01:24:56.699Z,84.97
2023-01-21T01:27:27.692Z,84.10
2023-01-21T01:29:58.642Z,85.67
2023-01-21T01:32:30.097Z,80.95
2023-01-21T01:35:01.180Z,80.48
2023-01-21T01:37:34.087Z,80.94
2023-01-21T01:40:05.174Z,76.25
2023-01-21T01:42:36.724Z,72.80
2023-01-21T01:45:22.763Z,73.84
2023-01-21T01:47:59.669Z,73.46
2023-01-21T01:50:34.918Z,74.30
2023-01-21T01:53:06.130Z,73.13
2023-01-21T01:55:39.725Z,73.07
2023-01-21T01:58:15.351Z,74.22
2023-01-21T02:00:46.603Z,72.10
2023-01-21T02:03:35.202Z,71.40
2023-01-21T02:06:06.343Z,71.39
2023-01-21T02:08:41.657Z,72.25
2023-01-21T02:11:17.845Z,68.75
2023-01-21T02:13:56.123Z,71.30
2023-01-21T02:16:48.803Z,72.98
2023-01-21T02:19:34.875Z,69.26
2023-01-21T02:22:17.237Z,69.54
2023-01-21T02:25:03.581Z,70.63
2023-01-21T02:27:55.983Z,71.51
2023-01-21T02:30:54.289Z,75.30
2023-01-21T02:33:44.620Z,75.63
2023-01-21T02:36:25.038Z,78.24
2023-01-21T02:39:39.145Z,76.93
2023-01-21T02:42:22.162Z,74.76
2023-01-21T02:45:09.247Z,75.57
2023-01-21T02:48:08.408Z,75.73
2023-01-21T02:50:45.094Z,71.91
2023-01-21T02:53:31.577Z,70.16
2023-01-21T02:56:10.107Z,70.35
2023-01-21T02:58:45.272Z,70.46
2023-01-21T03:02:12.663Z,68.28
2023-01-21T03:05:20.538Z,68.94
2023-01-21T03:07:59.904Z,70.53
2023-01-21T03:10:44.710Z,71.96
2023-01-21T03:13:40.636Z,73.77
2023-01-21T03:16:31.751Z,78.12
2023-01-21T03:19:05.683Z,73.94
2023-01-21T03:21:38.010Z,78.06
2023-01-21T03:24:09.342Z,78.11
2023-01-21T03:26:41.259Z,78.44
2023-01-21T03:29:24.644Z,77.25
2023-01-21T03:32:00.310Z,78.31
2023-01-21T03:34:35.438Z,81.54
2023-01-21T03:37:15.771Z,84.58
2023-01-21T03:39:48.633Z,82.27
2023-01-21T03:42:19.700Z,84.01
2023-01-21T03:44:50.592Z,85.59
2023-01-21T03:47:23.034Z,85.09
2023-01-21T03:50:13.106Z,82.29
2023-01-21T03:52:45.878Z,83.69
2023-01-21T03:55:19.194Z,84.94
2023-01-21T03:57:51.196Z,86.22
2023-01-21T04:00:22.317Z,87.43
2023-01-21T04:02:53.727Z,86.88
2023-01-21T04:05:24.951Z,87.61
2023-01-21T04:07:56.024Z,86.23
2023-01-21T04:10:27.317Z,84.45
2023-01-21T04:12:58.420Z,87.74
2023-01-21T04:15:29.545Z,82.08
2023-01-21T04:18:00.387Z,82.82
2023-01-21T04:20:32.645Z,87.75
2023-01-21T04:23:03.689Z,81.66
2023-01-21T04:25:34.794Z,76.16
2023-01-21T04:28:06.436Z,75.76
2023-01-21T04:30:37.938Z,75.76
2023-01-21T04:33:08.639Z,75.75
2023-01-21T04:35:39.636Z,78.57
2023-01-21T04:38:10.285Z,77.23
2023-01-21T04:40:41.412Z,77.89
2023-01-21T04:43:12.142Z,78.13
2023-01-21T04:45:43.353Z,80.04
2023-01-21T04:48:14.696Z,79.99
2023-01-21T04:50:46.099Z,83.03
2023-01-21T04:53:17.132Z,82.47
2023-01-21T04:55:48.185Z,83.06
2023-01-21T04:58:18.904Z,82.47
2023-01-21T05:00:50.217Z,85.26
2023-01-21T05:03:20.525Z,85.17
2023-01-21T05:05:51.620Z,86.64
2023-01-21T05:08:22.467Z,87.59
2023-01-21T05:10:53.555Z,86.68
2023-01-21T05:13:24.289Z,86.17
2023-01-21T05:15:55.308Z,87.97
2023-01-21T05:18:26.285Z,92.28
2023-01-21T05:20:58.413Z,92.66
2023-01-21T05:23:29.491Z,90.59
2023-01-21T05:26:00.103Z,86.54
2023-01-21T05:28:31.405Z,89.62
2023-01-21T05:31:03.623Z,88.99
2023-01-21T05:33:36.306Z,94.88
2023-01-21T05:36:07.701Z,98.57
2023-01-21T05:38:39.021Z,99.69
2023-01-21T05:41:10.065Z,100.00
2023-01-21T05:43:40.933Z,100.00
2023-01-21T05:46:12.069Z,100.00
2023-01-21T05:48:43.358Z,100.00
2023-01-21T05:51:14.470Z,100.00
2023-01-21T05:53:45.988Z,100.00
2023-01-21T05:56:17.220Z,100.00
2023-01-21T05:58:49.444Z,100.00
2023-01-21T06:01:20.563Z,100.00
2023-01-21T06:03:51.651Z,100.00
2023-01-21T06:06:23.413Z,100.00
2023-01-21T06:08:54.323Z,100.00
2023-01-21T06:11:25.676Z,100.00
2023-01-21T06:13:56.500Z,100.00
2023-01-21T06:16:27.561Z,100.00
2023-01-21T06:18:58.466Z,100.00
2023-01-21T06:21:29.435Z,100.00
2023-01-21T06:24:00.349Z,100.00
2023-01-21T06:26:31.434Z,100.00
2023-01-21T06:29:02.933Z,100.00
2023-01-21T06:31:34.039Z,100.00
2023-01-21T06:34:05.177Z,100.00
2023-01-21T06:36:37.910Z,100.00
2023-01-21T06:39:11.066Z,100.00
2023-01-21T06:41:42.495Z,100.00
2023-01-21T06:44:13.332Z,100.00
2023-01-21T06:46:52.080Z,100.00
2023-01-21T06:49:30.520Z,100.00
2023-01-21T06:52:01.578Z,100.00
2023-01-21T06:54:32.761Z,100.00
2023-01-21T06:57:06.562Z,100.00
2023-01-21T06:59:41.285Z,100.00
2023-01-21T07:02:15.063Z,100.00
2023-01-21T07:04:47.031Z,100.00
2023-01-21T07:07:17.894Z,100.00
2023-01-21T07:09:49.231Z,100.00
2023-01-21T07:12:20.155Z,100.00
2023-01-21T07:14:51.281Z,100.00
2023-01-21T07:17:23.186Z,100.00
2023-01-21T07:19:54.059Z,100.00
2023-01-21T07:22:25.086Z,100.00
2023-01-21T07:24:56.001Z,100.00
2023-01-21T07:27:26.949Z,100.00
2023-01-21T07:29:57.991Z,100.00
2023-01-21T07:32:29.181Z,100.00
2023-01-21T07:35:00.290Z,100.00
2023-01-21T07:37:32.306Z,100.00
2023-01-21T07:40:03.349Z,100.00
2023-01-21T07:42:34.493Z,100.00
2023-01-21T07:45:05.999Z,100.00
2023-01-21T07:47:37.078Z,100.00
2023-01-21T07:50:10.022Z,100.00
2023-01-21T07:52:41.161Z,100.00
2023-01-21T07:55:12.876Z,100.00
2023-01-21T07:57:44.028Z,100.00
2023-01-21T08:00:15.150Z,100.00
2023-01-21T08:02:46.287Z,100.00
2023-01-21T08:05:17.602Z,100.00
2023-01-21T08:07:48.794Z,100.00
2023-01-21T08:10:21.140Z,100.00
2023-01-21T08:12:52.157Z,100.00
2023-01-21T08:15:23.271Z,100.00
2023-01-21T08:17:54.119Z,100.00
2023-01-21T08:20:25.196Z,100.00
2023-01-21T08:22:56.468Z,100.00
2023-01-21T08:25:27.313Z,100.00
2023-01-21T08:28:00.117Z,100.00
2023-01-21T08:30:31.835Z,100.00
2023-01-21T08:33:02.302Z,100.00
2023-01-21T08:35:33.187Z,100.00
2023-01-21T08:38:04.956Z,100.00
2023-01-21T08:40:36.119Z,100.00
2023-01-21T08:43:10.517Z,100.00
2023-01-21T08:45:41.843Z,100.00
2023-01-21T08:48:13.009Z,100.00
2023-01-21T08:50:44.375Z,100.00
2023-01-21T08:53:15.430Z,100.00
2023-01-21T08:55:46.531Z,100.00
2023-01-21T08:58:17.790Z,100.00
2023-01-21T09:00:50.001Z,100.00
2023-01-21T09:03:21.286Z,100.00
2023-01-21T09:05:53.288Z,100.00
2023-01-21T09:08:24.538Z,100.00
2023-01-21T09:11:04.819Z,100.00
2023-01-21T09:13:38.924Z,100.00
2023-01-21T09:16:21.369Z,100.00
2023-01-21T09:18:52.445Z,100.00
2023-01-21T09:21:23.588Z,100.00
2023-01-21T09:23:54.966Z,100.00
2023-01-21T09:26:27.005Z,100.00
2023-01-21T09:28:58.350Z,100.00
2023-01-21T09:31:31.345Z,100.00
2023-01-21T09:34:05.216Z,100.00
2023-01-21T09:36:37.279Z,100.00
2023-01-21T09:39:09.185Z,100.00
2023-01-21T09:41:52.961Z,100.00
2023-01-21T09:44:53.351Z,100.00
2023-01-21T09:47:31.731Z,100.00
2023-01-21T09:50:08.557Z,100.00
2023-01-21T09:52:43.104Z,100.00
2023-01-21T09:55:32.706Z,100.00
2023-01-21T09:58:27.419Z,100.00
2023-01-21T10:01:08.156Z,100.00
2023-01-21T10:04:04.829Z,100.00
2023-01-21T10:06:57.300Z,100.00
2023-01-21T10:09:47.499Z,100.00
2023-01-21T10:12:46.012Z,100.00
2023-01-21T10:15:29.818Z,100.00
2023-01-21T10:18:16.434Z,100.00
2023-01-21T10:20:52.014Z,100.00
2023-01-21T10:23:31.169Z,100.00
2023-01-21T10:26:04.480Z,100.00
2023-01-21T10:28:35.980Z,100.00
2023-01-21T10:31:14.321Z,100.00
2023-01-21T10:33:45.469Z,100.00
2023-01-21T10:36:53.483Z,100.00
2023-01-21T10:40:02.204Z,100.00
2023-01-21T10:42:51.629Z,100.00
2023-01-21T10:45:28.849Z,100.00
2023-01-21T10:48:45.989Z,100.00
2023-01-21T10:51:33.988Z,100.00
2023-01-21T10:54:19.594Z,100.00
2023-01-21T10:57:19.485Z,100.00
2023-01-21T10:59:50.440Z,100.00
2023-01-21T11:02:27.148Z,100.00
2023-01-21T11:05:00.091Z,100.00
2023-01-21T11:07:36.285Z,100.00
2023-01-21T11:10:08.523Z,100.00
2023-01-21T11:12:39.497Z,100.00
2023-01-21T11:15:17.533Z,100.00
2023-01-21T11:17:51.198Z,100.00
2023-01-21T11:20:25.534Z,100.00
2023-01-21T11:22:56.655Z,100.00
2023-01-21T11:25:42.495Z,100.00
2023-01-21T11:28:28.588Z,100.00
2023-01-21T11:31:10.490Z,100.00
2023-01-21T11:33:42.535Z,100.00
2023-01-21T11:36:22.404Z,100.00
2023-01-21T11:39:07.402Z,100.00
2023-01-21T11:41:38.674Z,100.00
2023-01-21T11:44:27.589Z,100.00
2023-01-21T11:46:58.621Z,100.00
2023-01-21T11:49:34.620Z,100.00
2023-01-21T11:52:15.723Z,100.00
2023-01-21T11:54:47.508Z,100.00
2023-01-21T11:57:31.048Z,100.00
2023-01-21T12:00:19.357Z,100.00
2023-01-21T12:02:53.848Z,100.00
2023-01-21T12:05:47.669Z,100.00
2023-01-21T12:08:31.245Z,100.00
2023-01-21T12:11:06.232Z,100.00
2023-01-21T12:13:45.899Z,100.00
2023-01-21T12:16:27.126Z,100.00
2023-01-21T12:19:42.863Z,100.00
2023-01-21T12:22:24.398Z,100.00
2023-01-21T12:25:17.697Z,100.00
2023-01-21T12:27:58.898Z,100.00
2023-01-21T12:31:22.913Z,100.00
2023-01-21T12:34:12.666Z,100.00
2023-01-21T12:36:53.297Z,100.00
2023-01-21T12:39:33.561Z,100.00
2023-01-21T12:42:28.696Z,100.00
2023-01-21T12:45:15.057Z,100.00
2023-01-21T12:48:28.316Z,100.00
2023-01-21T12:51:03.597Z,100.00
2023-01-21T12:53:51.883Z,100.00
2023-01-21T12:57:06.960Z,100.00
2023-01-21T12:59:51.175Z,100.00
2023-01-21T13:02:34.736Z,100.00
2023-01-21T13:05:30.257Z,100.00
2023-01-21T13:08:28.990Z,100.00
2023-01-21T13:11:23.574Z,100.00
2023-01-21T13:14:09.623Z,100.00
2023-01-21T13:16:53.648Z,100.00
2023-01-21T13:19:25.317Z,100.00
2023-01-21T13:22:17.884Z,100.00
2023-01-21T13:25:21.712Z,100.00
2023-01-21T13:28:07.779Z,100.00
2023-01-21T13:30:59.806Z,100.00
2023-01-21T13:33:54.992Z,100.00
2023-01-21T13:36:37.843Z,100.00
2023-01-21T13:39:29.707Z,100.00
2023-01-21T13:42:34.704Z,100.00
2023-01-21T13:45:36.200Z,100.00
2023-01-21T13:48:17.058Z,100.00
2023-01-21T13:51:14.150Z,100.00
2023-01-21T13:54:12.113Z,100.00
2023-01-21T13:57:01.148Z,100.00
2023-01-21T13:59:51.716Z,100.00
2023-01-21T14:02:45.785Z,100.00
2023-01-21T14:05:28.906Z,100.00
2023-01-21T14:08:16.311Z,100.00
2023-01-21T14:11:12.195Z,100.00
2023-01-21T14:14:24.421Z,100.00
2023-01-21T14:17:26.164Z,100.00
2023-01-21T14:20:12.020Z,100.00
2023-01-21T14:22:43.082Z,100.00
2023-01-21T14:25:33.906Z,100.00
2023-01-21T14:28:17.869Z,100.00
2023-01-21T14:31:03.918Z,100.00
2023-01-21T14:34:02.669Z,100.00
2023-01-21T14:36:39.563Z,100.00
2023-01-21T14:39:10.521Z,100.00
2023-01-21T14:42:04.337Z,100.00
2023-01-21T14:44:48.457Z,100.00
2023-01-21T14:47:31.508Z,100.00
2023-01-21T14:50:02.596Z,100.00
2023-01-21T14:52:38.424Z,100.00
2023-01-21T14:55:33.754Z,100.00
2023-01-21T14:58:05.098Z,100.00
2023-01-21T15:00:38.637Z,100.00
2023-01-21T15:03:29.324Z,100.00
2023-01-21T15:06:10.565Z,100.00
2023-01-21T15:08:46.878Z,100.00
2023-01-21T15:11:53.894Z,100.00
2023-01-21T15:14:31.041Z,100.00
2023-01-21T15:17:02.268Z,100.00
2023-01-21T15:19:37.800Z,100.00
2023-01-21T15:22:20.937Z,100.00
2023-01-21T15:25:21.252Z,100.00
2023-01-21T15:28:29.101Z,100.00
2023-01-21T15:31:07.283Z,100.00
2023-01-21T15:33:46.745Z,100.00
2023-01-21T15:36:25.697Z,100.00
2023-01-21T15:39:11.493Z,100.00
2023-01-21T15:42:13.281Z,100.00
2023-01-21T15:44:49.980Z,100.00
2023-01-21T15:47:42.274Z,100.00
2023-01-21T15:50:27.234Z,100.00
2023-01-21T15:53:34.779Z,100.00
2023-01-21T15:56:21.759Z,100.00
2023-01-21T15:59:11.013Z,100.00
2023-01-21T16:01:42.792Z,100.00
2023-01-21T16:04:35.950Z,100.00
2023-01-21T16:07:16.361Z,100.00
2023-01-21T16:10:11.441Z,100.00
2023-01-21T16:13:06.729Z,100.00
2023-01-21T16:16:01.536Z,100.00
2023-01-21T16:18:55.394Z,100.00
2023-01-21T16:21:35.637Z,100.00
2023-01-21T16:24:18.953Z,100.00
2023-01-21T16:26:49.894Z,100.00
2023-01-21T16:29:21.031Z,100.00
2023-01-21T16:32:02.091Z,100.00
2023-01-21T16:34:44.551Z,100.00
2023-01-21T16:37:23.796Z,100.00
2023-01-21T16:40:11.075Z,100.00
2023-01-21T16:42:43.331Z,100.00
2023-01-21T16:45:19.400Z,100.00
2023-01-21T16:48:00.455Z,100.00
2023-01-21T16:50:34.058Z,100.00
2023-01-21T16:53:08.906Z,100.00
2023-01-21T16:55:47.351Z,100.00
2023-01-21T16:58:33.944Z,100.00
2023-01-21T17:01:20.316Z,100.00
2023-01-21T17:03:51.419Z,100.00
2023-01-21T17:06:29.569Z,100.00
2023-01-21T17:09:07.095Z,100.00
2023-01-21T17:11:38.364Z,100.00
2023-01-21T17:14:12.893Z,100.00
2023-01-21T17:16:45.479Z,100.00
2023-01-21T17:19:44.312Z,100.00
2023-01-21T17:22:21.559Z,100.00
2023-01-21T17:25:08.183Z,100.00
2023-01-21T17:27:41.393Z,100.00
2023-01-21T17:30:33.922Z,100.00
2023-01-21T17:33:05.398Z,100.00
2023-01-21T17:35:35.768Z,100.00
2023-01-21T17:38:07.517Z,100.00
2023-01-21T17:40:47.991Z,100.00
2023-01-21T17:43:26.820Z,100.00
2023-01-21T17:45:59.539Z,100.00
2023-01-21T17:48:30.539Z,100.00
2023-01-21T17:51:14.649Z,100.00
2023-01-21T17:53:54.465Z,100.00
2023-01-21T17:56:49.888Z,100.00
2023-01-21T17:59:45.073Z,100.00
2023-01-21T18:02:23.468Z,100.00
2023-01-21T18:04:54.602Z,100.00
2023-01-21T18:07:28.500Z,100.00
2023-01-21T18:10:04.141Z,100.00
2023-01-21T18:12:35.066Z,100.00
2023-01-21T18:15:06.214Z,100.00
2023-01-21T18:17:39.054Z,100.00
2023-01-21T18:20:23.869Z,100.00
2023-01-21T18:22:56.249Z,100.00
2023-01-21T18:25:29.123Z,100.00
2023-01-21T18:28:00.147Z,100.00
2023-01-21T18:30:31.567Z,100.00
2023-01-21T18:33:02.637Z,100.00
2023-01-21T18:35:33.762Z,100.00
2023-01-21T18:38:05.466Z,100.00
2023-01-21T18:40:36.804Z,100.00
2023-01-21T18:43:07.648Z,100.00
2023-01-21T18:45:39.146Z,100.00
2023-01-21T18:48:16.771Z,100.00
2023-01-21T18:50:47.855Z,100.00
2023-01-21T18:53:19.083Z,100.00
2023-01-21T18:55:52.387Z,100.00
2023-01-21T18:58:23.769Z,100.00
2023-01-21T19:00:54.892Z,100.00
2023-01-21T19:03:25.834Z,100.00
2023-01-21T19:05:57.213Z,100.00
2023-01-21T19:08:30.067Z,100.00
2023-01-21T19:11:01.680Z,100.00
2023-01-21T19:13:32.609Z,100.00
2023-01-21T19:16:03.850Z,100.00
2023-01-21T19:18:35.560Z,100.00
2023-01-21T19:21:06.820Z,100.00
2023-01-21T19:23:38.568Z,100.00
2023-01-21T19:26:10.148Z,100.00
2023-01-21T19:28:41.216Z,100.00
2023-01-21T19:31:12.568Z,100.00
2023-01-21T19:33:46.848Z,100.00
2023-01-21T19:36:21.754Z,100.00
2023-01-21T19:38:56.703Z,100.00
2023-01-21T19:41:27.777Z,100.00
2023-01-21T19:43:58.843Z,100.00
2023-01-21T19:46:30.208Z,100.00
2023-01-21T19:49:01.391Z,100.00
2023-01-21T19:51:32.522Z,100.00
2023-01-21T19:54:03.613Z,100.00
2023-01-21T19:56:34.736Z,100.00
2023-01-21T19:59:07.036Z,100.00
2023-01-21T20:01:38.341Z,100.00
2023-01-21T20:04:09.679Z,100.00
2023-01-21T20:06:46.039Z,100.00
2023-01-21T20:09:19.167Z,100.00
2023-01-21T20:11:50.524Z,100.00
2023-01-21T20:14:22.020Z,100.00
2023-01-21T20:16:55.683Z,100.00
2023-01-21T20:19:26.919Z,100.00
2023-01-21T20:22:03.211Z,100.00
2023-01-21T20:24:35.429Z,100.00
2023-01-21T20:27:09.550Z,100.00
2023-01-21T20:29:49.613Z,100.00
2023-01-21T20:32:27.753Z,100.00
2023-01-21T20:34:59.107Z,100.00
2023-01-21T20:37:32.366Z,100.00
2023-01-21T20:40:04.995Z,100.00
2023-01-21T20:42:35.976Z,100.00
2023-01-21T20:45:07.816Z,100.00
2023-01-21T20:47:38.853Z,100.00
2023-01-21T20:50:24.054Z,100.00
2023-01-21T20:52:56.092Z,100.00
2023-01-21T20:55:29.191Z,100.00
2023-01-21T20:58:00.302Z,100.00
2023-01-21T21:00:34.788Z,100.00
2023-01-21T21:03:06.048Z,100.00
2023-01-21T21:05:37.565Z,100.00
2023-01-21T21:08:08.678Z,100.00
2023-01-21T21:10:39.518Z,100.00
2023-01-21T21:13:11.905Z,100.00
2023-01-21T21:15:46.375Z,100.00
2023-01-21T21:18:17.772Z,100.00
2023-01-21T21:20:48.862Z,100.00
2023-01-21T21:23:20.141Z,100.00
2023-01-21T21:25:51.200Z,100.00
2023-01-21T21:28:22.734Z,100.00
2023-01-21T21:30:53.792Z,100.00
2023-01-21T21:33:25.238Z,100.00
2023-01-21T21:35:57.305Z,100.00
2023-01-21T21:38:28.371Z,100.00
2023-01-21T21:41:19.344Z,100.00
2023-01-21T21:43:50.368Z,100.00
2023-01-21T21:46:44.480Z,100.00
2023-01-21T21:49:15.755Z,100.00
2023-01-21T21:51:46.963Z,100.00
2023-01-21T21:54:17.840Z,100.00
2023-01-21T21:56:49.301Z,100.00
2023-01-21T21:59:20.592Z,100.00
2023-01-21T22:01:51.919Z,100.00
2023-01-21T22:04:23.996Z,100.00
2023-01-21T22:06:54.981Z,100.00
2023-01-21T22:09:25.537Z,100.00
2023-01-21T22:11:56.580Z,100.00
2023-01-21T22:14:28.459Z,100.00
2023-01-21T22:16:59.644Z,100.00
2023-01-21T22:19:30.724Z,100.00
2023-01-21T22:22:01.687Z,100.00
2023-01-21T22:24:32.809Z,100.00
2023-01-21T22:27:04.069Z,100.00
2023-01-21T22:29:34.987Z,100.00
2023-01-21T22:32:06.260Z,100.00
2023-01-21T22:34:37.777Z,100.00
2023-01-21T22:37:08.393Z,100.00
2023-01-21T22:39:39.810Z,100.00
2023-01-21T22:42:11.667Z,100.00
2023-01-21T22:44:41.993Z,100.00
2023-01-21T22:47:13.188Z,98.25
2023-01-21T22:49:44.892Z,93.44
2023-01-21T22:52:16.292Z,95.43
2023-01-21T22:54:49.500Z,90.25
2023-01-21T22:57:21.255Z,91.02
2023-01-21T22:59:52.170Z,86.08
2023-01-21T23:02:26.808Z,91.94
2023-01-21T23:04:57.723Z,85.32
2023-01-21T23:07:28.656Z,84.85
2023-01-21T23:09:59.693Z,90.79
2023-01-21T23:12:31.413Z,76.85
2023-01-21T23:15:03.157Z,79.69
2023-01-21T23:17:34.251Z,80.24
2023-01-21T23:20:05.866Z,82.97
2023-01-21T23:22:36.940Z,84.70
2023-01-21T23:25:08.840Z,82.50
2023-01-21T23:27:39.961Z,89.25
2023-01-21T23:30:11.595Z,80.84
2023-01-21T23:32:42.685Z,77.27
2023-01-21T23:35:13.280Z,78.90
2023-01-21T23:37:44.117Z,88.11
2023-01-21T23:40:16.178Z,89.68
2023-01-21T23:42:51.258Z,94.69
2023-01-21T23:45:22.133Z,100.00
2023-01-21T23:47:53.052Z,100.00
2023-01-21T23:50:24.304Z,100.00
2023-01-21T23:52:55.299Z,100.00
2023-01-21T23:55:25.890Z,100.00
2023-01-21T23:57:58.792Z,100.00
